createdAt,value
2018-01-10T00:01:41.642Z,73.93
2018-01-10T00:06:50.459Z,73.88
2018-01-10T00:11:52.588Z,74.33
2018-01-10T00:16:53.895Z,74.00
2018-01-10T00:21:55.995Z,73.83
2018-01-10T00:26:58.043Z,73.70
2018-01-10T00:31:59.374Z,73.55
2018-01-10T00:37:00.702Z,73.52
2018-01-10T00:42:02.023Z,73.55
2018-01-10T00:47:03.355Z,73.63
2018-01-10T00:52:04.985Z,73.94
2018-01-10T00:57:06.322Z,73.93
2018-01-10T01:02:07.687Z,73.60
2018-01-10T01:07:08.996Z,73.64
2018-01-10T01:12:10.327Z,73.71
2018-01-10T01:17:12.431Z,73.62
2018-01-10T01:22:14.494Z,74.22
2018-01-10T01:27:15.832Z,74.02
2018-01-10T01:32:17.882Z,73.71
2018-01-10T01:37:19.222Z,73.43
2018-01-10T01:42:21.267Z,73.32
2018-01-10T01:47:22.593Z,73.33
2018-01-10T01:52:23.951Z,73.51
2018-01-10T01:57:25.288Z,73.54
2018-01-10T02:02:26.639Z,73.56
2018-01-10T02:07:27.989Z,73.44
2018-01-10T02:12:30.074Z,73.65
2018-01-10T02:17:31.452Z,73.87
2018-01-10T02:22:32.818Z,73.18
2018-01-10T02:27:34.677Z,73.27
2018-01-10T02:32:36.737Z,72.99
2018-01-10T02:37:38.040Z,72.89
2018-01-10T02:42:39.356Z,73.14
2018-01-10T02:47:40.718Z,72.93
2018-01-10T02:52:42.045Z,72.99
2018-01-10T02:57:43.397Z,73.30
2018-01-10T03:02:44.727Z,73.59
2018-01-10T03:07:46.039Z,74.11
2018-01-10T03:12:47.357Z,74.63
2018-01-10T03:17:48.655Z,74.13
2018-01-10T03:22:49.998Z,74.23
2018-01-10T03:27:51.331Z,74.31
2018-01-10T03:32:59.491Z,73.93
2018-01-10T03:38:00.820Z,73.63
2018-01-10T03:43:02.154Z,73.27
2018-01-10T03:48:03.476Z,73.49
2018-01-10T03:53:05.578Z,73.76
2018-01-10T03:58:06.875Z,73.90
2018-01-10T04:03:08.274Z,74.10
2018-01-10T04:08:09.600Z,74.29
2018-01-10T04:13:10.916Z,73.94
2018-01-10T04:18:12.295Z,73.71
2018-01-10T04:23:13.642Z,73.63
2018-01-10T04:28:14.958Z,73.51
2018-01-10T04:33:16.275Z,73.26
2018-01-10T04:38:17.631Z,73.00
2018-01-10T04:43:18.964Z,72.83
2018-01-10T04:48:20.274Z,72.66
2018-01-10T04:53:22.338Z,72.46
2018-01-10T04:58:23.658Z,72.43
2018-01-10T05:03:25.993Z,72.38
2018-01-10T05:08:28.084Z,72.42
2018-01-10T05:13:29.428Z,71.93
2018-01-10T05:18:31.121Z,71.79
2018-01-10T05:23:32.408Z,71.75
2018-01-10T05:28:33.910Z,71.62
2018-01-10T05:33:36.026Z,71.47
2018-01-10T05:38:37.336Z,71.15
2018-01-10T05:43:38.892Z,71.33
2018-01-10T05:48:40.219Z,71.19
2018-01-10T05:53:41.565Z,70.94
2018-01-10T05:58:42.896Z,70.89
2018-01-10T06:03:45.020Z,70.84
2018-01-10T06:08:47.062Z,71.03
2018-01-10T06:13:48.440Z,70.89
2018-01-10T06:18:52.215Z,70.71
2018-01-10T06:23:53.622Z,70.83
2018-01-10T06:28:55.501Z,70.73
2018-01-10T06:33:56.827Z,70.41
2018-01-10T06:38:58.133Z,70.49
2018-01-10T06:44:00.199Z,70.60
2018-01-10T06:49:01.653Z,70.69
2018-01-10T06:54:04.107Z,70.62
2018-01-10T06:59:05.823Z,70.77
2018-01-10T07:04:07.900Z,70.53
2018-01-10T07:09:09.256Z,70.96
2018-01-10T07:14:10.564Z,71.25
2018-01-10T07:19:11.903Z,71.59
2018-01-10T07:24:14.016Z,71.79
2018-01-10T07:29:15.332Z,71.97
2018-01-10T07:34:16.693Z,72.44
2018-01-10T07:39:18.009Z,73.02
2018-01-10T07:44:19.370Z,72.98
2018-01-10T07:49:20.687Z,72.91
2018-01-10T07:54:22.043Z,72.87
2018-01-10T07:59:23.362Z,72.97
2018-01-10T08:04:25.430Z,72.72
2018-01-10T08:09:26.755Z,72.63
2018-01-10T08:14:28.836Z,72.35
2018-01-10T08:19:30.171Z,72.57
2018-01-10T08:24:31.559Z,72.83
2018-01-10T08:29:32.924Z,72.28
2018-01-10T08:34:35.067Z,71.84
2018-01-10T08:39:36.388Z,71.82
2018-01-10T08:44:37.708Z,71.98
2018-01-10T08:49:39.759Z,71.62
2018-01-10T08:54:41.113Z,71.53
2018-01-10T08:59:43.171Z,71.05
2018-01-10T09:04:44.472Z,70.61
2018-01-10T09:09:45.813Z,70.27
2018-01-10T09:14:47.142Z,69.97
2018-01-10T09:19:48.446Z,69.71
2018-01-10T09:24:49.764Z,69.45
2018-01-10T09:29:51.077Z,68.80
2018-01-10T09:34:52.416Z,68.45
2018-01-10T09:39:53.776Z,68.44
2018-01-10T09:44:55.077Z,68.08
2018-01-10T09:49:56.391Z,67.86
2018-01-10T09:54:57.731Z,67.51
2018-01-10T09:59:59.047Z,67.63
2018-01-10T10:05:00.393Z,67.56
2018-01-10T10:10:01.854Z,67.46
2018-01-10T10:15:03.412Z,67.45
2018-01-10T10:20:04.768Z,67.61
2018-01-10T10:25:06.820Z,67.73
2018-01-10T10:30:08.181Z,67.75
2018-01-10T10:35:09.516Z,67.33
2018-01-10T10:40:10.940Z,67.29
2018-01-10T10:45:13.003Z,67.16
2018-01-10T10:50:14.318Z,66.98
2018-01-10T10:55:15.639Z,66.52
2018-01-10T11:00:16.967Z,66.35
2018-01-10T11:05:27.762Z,65.67
2018-01-10T11:10:29.087Z,65.55
2018-01-10T11:15:30.433Z,65.52
2018-01-10T11:20:31.754Z,65.21
2018-01-10T11:25:33.087Z,64.90
2018-01-10T11:30:34.417Z,65.01
2018-01-10T11:35:35.755Z,64.74
2018-01-10T11:40:38.010Z,64.89
2018-01-10T11:45:39.388Z,64.85
2018-01-10T11:50:41.224Z,64.53
2018-01-10T11:55:43.335Z,63.82
2018-01-10T12:00:44.687Z,63.36
2018-01-10T12:05:46.019Z,62.37
2018-01-10T12:10:47.328Z,62.24
2018-01-10T12:15:49.462Z,62.27
2018-01-10T12:20:50.827Z,62.33
2018-01-10T12:25:53.027Z,62.26
2018-01-10T12:30:54.367Z,62.16
2018-01-10T12:35:56.223Z,62.14
2018-01-10T12:40:58.546Z,62.62
2018-01-10T12:46:00.280Z,62.91
2018-01-10T12:51:01.636Z,62.76
2018-01-10T12:56:03.879Z,62.82
2018-01-10T13:01:05.451Z,62.63
2018-01-10T13:06:07.508Z,62.75
2018-01-10T13:11:09.136Z,62.81
2018-01-10T13:16:10.915Z,63.01
2018-01-10T13:21:13.417Z,62.94
2018-01-10T13:26:14.755Z,62.76
2018-01-10T13:31:16.121Z,62.13
2018-01-10T13:36:17.448Z,62.03
2018-01-10T13:41:18.902Z,62.48
2018-01-10T13:46:20.279Z,62.75
2018-01-10T13:51:21.645Z,62.99
2018-01-10T13:56:23.061Z,63.18
2018-01-10T14:01:24.413Z,63.48
2018-01-10T14:06:26.088Z,63.72
2018-01-10T14:11:27.466Z,63.80
2018-01-10T14:16:29.807Z,63.61
2018-01-10T14:21:31.375Z,63.81
2018-01-10T14:26:33.444Z,63.81
2018-01-10T14:31:34.771Z,63.65
2018-01-10T14:36:36.820Z,63.26
2018-01-10T14:41:38.131Z,63.27
2018-01-10T14:46:39.771Z,63.38
2018-01-10T14:51:41.833Z,63.68
2018-01-10T14:56:43.182Z,64.08
2018-01-10T15:01:44.504Z,64.28
2018-01-10T15:06:45.849Z,64.54
2018-01-10T15:11:47.935Z,64.73
2018-01-10T15:16:50.033Z,65.33
2018-01-10T15:21:51.408Z,66.04
2018-01-10T15:26:52.723Z,66.27
2018-01-10T15:31:54.033Z,66.70
2018-01-10T15:36:56.220Z,66.62
2018-01-10T15:41:58.300Z,66.82
2018-01-10T15:46:59.619Z,67.29
2018-01-10T15:52:02.025Z,66.92
2018-01-10T15:57:03.366Z,67.03
2018-01-10T16:02:04.711Z,67.14
2018-01-10T16:07:06.033Z,67.72
2018-01-10T16:12:07.333Z,67.67
2018-01-10T16:17:08.730Z,67.57
2018-01-10T16:22:10.048Z,67.94
2018-01-10T16:27:11.363Z,68.30
2018-01-10T16:32:13.440Z,69.38
2018-01-10T16:37:14.907Z,69.29
2018-01-10T16:42:16.219Z,69.80
2018-01-10T16:47:17.563Z,69.36
2018-01-10T16:52:18.936Z,69.36
2018-01-10T16:57:20.365Z,69.11
2018-01-10T17:02:21.831Z,68.62
2018-01-10T17:07:23.239Z,69.09
2018-01-10T17:12:24.578Z,69.42
2018-01-10T17:17:25.879Z,69.86
2018-01-10T17:22:27.952Z,69.51
2018-01-10T17:27:29.282Z,69.92
2018-01-10T17:32:31.335Z,70.13
2018-01-10T17:37:32.662Z,69.60
2018-01-10T17:42:33.992Z,69.19
2018-01-10T17:47:35.329Z,69.34
2018-01-10T17:52:36.653Z,69.28
2018-01-10T17:57:37.971Z,69.10
2018-01-10T18:02:39.358Z,68.57
2018-01-10T18:07:40.680Z,68.25
2018-01-10T18:12:42.039Z,68.01
2018-01-10T18:17:43.387Z,68.00
2018-01-10T18:22:45.474Z,68.29
2018-01-10T18:27:46.785Z,68.76
2018-01-10T18:32:48.823Z,68.91
2018-01-10T18:37:50.157Z,70.22
2018-01-10T18:42:51.519Z,70.88
2018-01-10T18:47:52.851Z,71.44
2018-01-10T18:52:54.184Z,70.24
2018-01-10T18:57:55.517Z,69.44
2018-01-10T19:02:56.982Z,69.07
2018-01-10T19:07:58.370Z,68.70
2018-01-10T19:12:59.672Z,68.41
2018-01-10T19:18:01.912Z,68.33
2018-01-10T19:23:03.320Z,68.32
2018-01-10T19:28:05.392Z,68.56
2018-01-10T19:33:06.708Z,68.72
2018-01-10T19:38:08.847Z,68.77
2018-01-10T19:43:10.299Z,68.89
2018-01-10T19:48:11.629Z,69.01
2018-01-10T19:53:13.866Z,69.00
2018-01-10T19:58:15.237Z,69.03
2018-01-10T20:03:16.607Z,68.99
2018-01-10T20:08:17.987Z,68.95
2018-01-10T20:13:21.210Z,69.70
2018-01-10T20:18:23.626Z,69.87
2018-01-10T20:23:25.061Z,69.74
2018-01-10T20:28:26.436Z,70.06
2018-01-10T20:33:27.848Z,70.82
2018-01-10T20:38:29.202Z,71.51
2018-01-10T20:43:31.940Z,71.43
2018-01-10T20:48:33.301Z,72.56
2018-01-10T20:53:35.386Z,73.22
2018-01-10T20:58:36.850Z,72.92
2018-01-10T21:03:38.411Z,72.33
2018-01-10T21:08:40.467Z,71.59
2018-01-10T21:13:41.823Z,71.25
2018-01-10T21:18:43.120Z,71.29
2018-01-10T21:23:44.477Z,71.51
2018-01-10T21:28:46.523Z,71.53
2018-01-10T21:33:47.915Z,72.52
2018-01-10T21:38:49.226Z,72.80
2018-01-10T21:43:51.596Z,72.82
2018-01-10T21:48:53.032Z,72.89
2018-01-10T21:53:54.407Z,72.47
2018-01-10T21:58:55.733Z,72.11
2018-01-10T22:03:57.329Z,72.02
2018-01-10T22:08:58.715Z,71.69
2018-01-10T22:14:00.039Z,71.94
2018-01-10T22:19:01.404Z,71.97
2018-01-10T22:24:07.679Z,72.39
2018-01-10T22:29:09.109Z,72.35
2018-01-10T22:34:12.172Z,72.65
2018-01-10T22:39:13.505Z,72.52
2018-01-10T22:44:14.887Z,72.44
2018-01-10T22:49:16.304Z,72.22
2018-01-10T22:54:18.397Z,72.31
2018-01-10T22:59:19.723Z,72.86
2018-01-10T23:04:21.072Z,72.85
2018-01-10T23:09:24.563Z,72.47
2018-01-10T23:19:42.571Z,72.34
2018-01-10T23:24:43.987Z,73.01
2018-01-10T23:29:45.289Z,73.65
2018-01-10T23:34:46.606Z,74.83
2018-01-10T23:39:47.912Z,74.21
2018-01-10T23:44:49.212Z,73.62
2018-01-10T23:49:50.514Z,73.91
2018-01-10T23:54:52.559Z,74.04
2018-01-10T23:59:53.851Z,73.26
